createdAt,value
2018-07-08T00:02:37.000Z,33.404
2018-07-08T00:12:37.000Z,33.831
2018-07-08T00:22:37.000Z,33.828
2018-07-08T00:32:37.000Z,33.861
2018-07-08T00:42:37.000Z,34.27
2018-07-08T00:52:37.000Z,34.391
2018-07-08T01:02:37.000Z,34.433
2018-07-08T01:12:38.000Z,34.375
2018-07-08T01:22:38.000Z,34.626
2018-07-08T01:32:38.000Z,34.755
2018-07-08T01:42:38.000Z,34.853
2018-07-08T01:52:38.000Z,35.058
2018-07-08T02:02:38.000Z,35.132
2018-07-08T02:12:38.000Z,35.108
2018-07-08T02:22:38.000Z,35.434
2018-07-08T02:32:38.000Z,35.254
2018-07-08T02:42:38.000Z,35.625
2018-07-08T02:52:38.000Z,35.647
2018-07-08T03:02:38.000Z,35.643
2018-07-08T03:12:38.000Z,35.881
2018-07-08T03:22:38.000Z,35.913
2018-07-08T03:32:38.000Z,35.977
2018-07-08T03:42:38.000Z,36.337
2018-07-08T03:52:38.000Z,36.115
2018-07-08T04:02:38.000Z,36.466
2018-07-08T04:12:38.000Z,36.684
2018-07-08T04:22:38.000Z,36.846
2018-07-08T04:32:38.000Z,36.878
2018-07-08T04:42:39.000Z,36.849
2018-07-08T04:52:38.000Z,36.763
2018-07-08T05:02:38.000Z,36.71
2018-07-08T05:12:38.000Z,36.739
2018-07-08T05:22:38.000Z,36.785
2018-07-08T05:32:38.000Z,36.858
2018-07-08T05:42:38.000Z,36.666
2018-07-08T05:52:38.000Z,36.748
2018-07-08T06:02:38.000Z,36.666
2018-07-08T06:12:38.000Z,36.625
2018-07-08T06:22:38.000Z,37.128
2018-07-08T06:32:38.000Z,37.334
2018-07-08T06:42:38.000Z,37.173
2018-07-08T06:52:38.000Z,37.054
2018-07-08T07:02:38.000Z,37.113
2018-07-08T07:12:38.000Z,36.757
2018-07-08T07:22:38.000Z,36.822
2018-07-08T07:32:38.000Z,37.132
2018-07-08T07:42:38.000Z,36.544
2018-07-08T07:52:38.000Z,36.269
2018-07-08T08:02:38.000Z,35.564
2018-07-08T08:12:38.000Z,34.998
2018-07-08T08:22:38.000Z,34.679
2018-07-08T08:32:38.000Z,33.93
2018-07-08T08:42:38.000Z,33.592
2018-07-08T08:52:38.000Z,32.628
2018-07-08T09:02:38.000Z,31.904
2018-07-08T09:12:38.000Z,31.803
2018-07-08T09:22:39.000Z,29.967
2018-07-08T09:32:39.000Z,30.413
2018-07-08T09:42:39.000Z,29.388
2018-07-08T09:52:39.000Z,28.796
2018-07-08T10:02:39.000Z,27.457
2018-07-08T10:12:39.000Z,27.489
2018-07-08T10:22:39.000Z,27.519
2018-07-08T10:32:39.000Z,26.727
2018-07-08T10:42:39.000Z,25.402
2018-07-08T10:52:39.000Z,25.971
2018-07-08T11:02:39.000Z,25.571
2018-07-08T11:12:39.000Z,25.382
2018-07-08T11:22:39.000Z,25.364
2018-07-08T11:32:39.000Z,25.277
2018-07-08T11:42:39.000Z,25.582
2018-07-08T11:52:39.000Z,25.559
2018-07-08T12:02:39.000Z,25.703
2018-07-08T12:12:39.000Z,25.489
2018-07-08T12:22:39.000Z,24.904
2018-07-08T12:32:39.000Z,24.862
2018-07-08T12:42:39.000Z,24.993
2018-07-08T12:52:39.000Z,25.228
2018-07-08T13:02:39.000Z,25.047
2018-07-08T13:12:39.000Z,25.108
2018-07-08T13:22:39.000Z,25.26
2018-07-08T13:32:39.000Z,25.469
2018-07-08T13:42:39.000Z,25.641
2018-07-08T13:52:39.000Z,25.64
2018-07-08T14:02:39.000Z,26.039
2018-07-08T14:12:39.000Z,25.613
2018-07-08T14:22:39.000Z,25.862
2018-07-08T14:32:39.000Z,26.242
2018-07-08T14:42:39.000Z,26.433
2018-07-08T14:52:39.000Z,26.406
2018-07-08T15:02:39.000Z,26.507
2018-07-08T15:12:39.000Z,26.826
2018-07-08T15:22:39.000Z,26.752
2018-07-08T15:32:39.000Z,26.247
2018-07-08T15:42:39.000Z,26.381
2018-07-08T15:52:39.000Z,26.391
2018-07-08T16:02:39.000Z,26.521
2018-07-08T16:12:39.000Z,26.277
2018-07-08T16:22:39.000Z,26.612
2018-07-08T16:32:39.000Z,26.691
2018-07-08T16:42:40.000Z,26.845
2018-07-08T16:52:39.000Z,26.899
2018-07-08T17:02:39.000Z,26.659
2018-07-08T17:12:39.000Z,26.737
2018-07-08T17:22:39.000Z,26.943
2018-07-08T17:32:40.000Z,27.033
2018-07-08T17:42:40.000Z,27.352
2018-07-08T17:52:40.000Z,27.454
2018-07-08T18:02:40.000Z,27.156
2018-07-08T18:12:40.000Z,27.29
2018-07-08T18:22:40.000Z,27.813
2018-07-08T18:32:40.000Z,27.988
2018-07-08T18:42:40.000Z,28.403
2018-07-08T18:52:40.000Z,29.06
2018-07-08T19:02:40.000Z,29.212
2018-07-08T19:12:40.000Z,29.412
2018-07-08T19:22:40.000Z,29.841
2018-07-08T19:32:40.000Z,30.621
2018-07-08T19:42:40.000Z,30.917
2018-07-08T19:52:40.000Z,31.148
2018-07-08T20:02:40.000Z,31.247
2018-07-08T20:12:41.000Z,31.225
2018-07-08T20:22:41.000Z,31.485
2018-07-08T20:32:40.000Z,31.647
2018-07-08T20:42:40.000Z,31.714
2018-07-08T20:52:40.000Z,31.81
2018-07-08T21:02:40.000Z,32.202
2018-07-08T21:12:40.000Z,32.414
2018-07-08T21:22:40.000Z,32.629
2018-07-08T21:32:40.000Z,32.696
2018-07-08T21:42:40.000Z,33.416
2018-07-08T21:52:40.000Z,33.854
2018-07-08T22:02:40.000Z,33.515
2018-07-08T22:12:40.000Z,33.372
2018-07-08T22:22:40.000Z,33.359
2018-07-08T22:32:40.000Z,33.432
2018-07-08T22:42:40.000Z,33.491
2018-07-08T22:52:40.000Z,33.326
2018-07-08T23:02:41.000Z,33.324
2018-07-08T23:12:40.000Z,33.264
2018-07-08T23:22:40.000Z,33.465
2018-07-08T23:32:40.000Z,33.52
2018-07-08T23:42:40.000Z,33.58
2018-07-08T23:52:40.000Z,33.762
